createdAt,value
2023-04-17T00:04:31.202Z,99.73
2023-04-17T00:09:33.136Z,100.00
2023-04-17T00:14:34.738Z,99.71
2023-04-17T00:19:36.313Z,99.49
2023-04-17T00:24:37.858Z,99.59
2023-04-17T00:29:39.460Z,98.13
2023-04-17T00:34:41.031Z,98.26
2023-04-17T00:39:42.623Z,99.64
2023-04-17T00:44:44.261Z,99.12
2023-04-17T00:49:45.818Z,99.82
2023-04-17T00:54:47.517Z,99.24
2023-04-17T00:59:49.418Z,99.59
2023-04-17T01:04:51.017Z,98.62
2023-04-17T01:09:52.731Z,99.71
2023-04-17T01:14:55.353Z,98.12
2023-04-17T01:19:57.429Z,98.79
2023-04-17T01:24:59.238Z,99.01
2023-04-17T01:30:06.808Z,99.14
2023-04-17T01:35:14.768Z,97.87
2023-04-17T01:40:16.560Z,98.34
2023-04-17T01:45:18.260Z,97.97
2023-04-17T01:50:19.991Z,97.74
2023-04-17T01:55:22.134Z,97.42
2023-04-17T02:00:24.302Z,98.34
2023-04-17T02:05:25.898Z,99.73
2023-04-17T02:10:27.529Z,98.68
2023-04-17T02:15:29.087Z,98.32
2023-04-17T02:20:30.883Z,98.17
2023-04-17T02:25:33.718Z,99.14
2023-04-17T02:30:35.758Z,98.58
2023-04-17T02:35:37.413Z,97.55
2023-04-17T02:40:39.226Z,98.05
2023-04-17T02:45:40.893Z,97.59
2023-04-17T02:50:42.465Z,98.00
2023-04-17T02:55:49.289Z,98.26
2023-04-17T03:01:00.951Z,98.79
2023-04-17T03:06:04.527Z,97.56
2023-04-17T03:11:06.634Z,96.84
2023-04-17T03:16:08.416Z,96.94
2023-04-17T03:21:12.728Z,97.38
2023-04-17T03:26:14.324Z,98.24
2023-04-17T03:31:16.809Z,99.32
2023-04-17T03:36:18.553Z,98.02
2023-04-17T03:41:20.350Z,98.28
2023-04-17T03:46:22.762Z,99.23
2023-04-17T03:51:24.781Z,98.65
2023-04-17T03:56:28.416Z,99.61
2023-04-17T04:01:30.416Z,98.92
2023-04-17T04:06:47.232Z,99.66
2023-04-17T04:11:50.904Z,99.96
2023-04-17T04:16:53.004Z,99.10
2023-04-17T04:21:55.487Z,98.69
2023-04-17T04:27:04.496Z,99.16
2023-04-17T04:32:09.705Z,99.30
2023-04-17T04:37:16.236Z,100.00
2023-04-17T04:42:23.016Z,98.60
2023-04-17T04:47:53.811Z,99.14
2023-04-17T04:52:55.553Z,99.93
2023-04-17T04:58:15.088Z,99.51
2023-04-17T05:03:18.409Z,100.00
2023-04-17T05:08:21.940Z,100.00
2023-04-17T05:13:33.168Z,100.00
2023-04-17T05:18:35.672Z,100.00
2023-04-17T05:23:37.707Z,100.00
2023-04-17T05:28:40.979Z,100.00
2023-04-17T05:33:42.996Z,100.00
2023-04-17T05:38:46.151Z,100.00
2023-04-17T05:43:48.152Z,100.00
2023-04-17T05:48:49.893Z,99.94
2023-04-17T05:53:52.819Z,100.00
2023-04-17T05:58:55.701Z,100.00
2023-04-17T06:03:58.414Z,100.00
2023-04-17T06:09:02.133Z,100.00
2023-04-17T06:14:03.888Z,100.00
2023-04-17T06:19:06.369Z,100.00
2023-04-17T06:24:08.700Z,100.00
2023-04-17T06:29:10.523Z,100.00
2023-04-17T06:34:12.787Z,100.00
2023-04-17T06:39:17.920Z,100.00
2023-04-17T06:44:19.887Z,100.00
2023-04-17T06:49:22.473Z,100.00
2023-04-17T06:54:25.993Z,98.75
2023-04-17T06:59:27.558Z,99.01
2023-04-17T07:04:30.685Z,100.00
2023-04-17T07:09:32.266Z,100.00
2023-04-17T07:14:35.252Z,99.08
2023-04-17T07:19:38.637Z,100.00
2023-04-17T07:24:40.321Z,99.01
2023-04-17T07:29:41.924Z,98.31
2023-04-17T07:34:43.463Z,96.69
2023-04-17T07:39:45.366Z,96.81
2023-04-17T07:44:48.520Z,98.09
2023-04-17T07:49:50.327Z,97.60
2023-04-17T07:54:51.946Z,96.21
2023-04-17T07:59:53.540Z,96.31
2023-04-17T08:04:55.424Z,94.33
2023-04-17T08:09:57.210Z,95.03
2023-04-17T08:14:58.798Z,93.54
2023-04-17T08:20:02.194Z,94.43
2023-04-17T08:25:08.955Z,93.33
2023-04-17T08:30:13.870Z,93.45
2023-04-17T08:35:17.464Z,91.34
2023-04-17T08:40:23.079Z,88.97
2023-04-17T08:45:24.816Z,89.44
2023-04-17T08:50:27.050Z,91.44
2023-04-17T08:55:32.612Z,90.86
2023-04-17T09:00:42.176Z,90.60
2023-04-17T09:05:45.949Z,87.39
2023-04-17T09:10:49.607Z,87.49
2023-04-17T09:16:05.300Z,85.38
2023-04-17T09:21:07.443Z,85.88
2023-04-17T09:26:13.973Z,85.01
2023-04-17T09:31:18.485Z,86.76
2023-04-17T09:36:23.371Z,85.47
2023-04-17T09:41:27.102Z,84.43
2023-04-17T09:46:39.612Z,84.65
2023-04-17T09:51:41.889Z,85.05
2023-04-17T09:56:43.871Z,86.64
2023-04-17T10:01:45.990Z,86.54
2023-04-17T10:06:48.715Z,86.24
2023-04-17T10:11:50.625Z,84.47
2023-04-17T10:16:52.986Z,83.68
2023-04-17T10:22:18.070Z,83.66
2023-04-17T10:27:26.152Z,82.75
2023-04-17T10:32:31.716Z,81.08
2023-04-17T10:37:49.197Z,79.44
2023-04-17T10:43:13.402Z,79.19
2023-04-17T10:48:24.536Z,80.12
2023-04-17T10:53:45.390Z,81.00
2023-04-17T10:59:08.416Z,81.13
2023-04-17T11:04:11.387Z,78.96
2023-04-17T11:09:14.009Z,78.55
2023-04-17T11:14:21.034Z,79.66
2023-04-17T11:19:24.158Z,79.03
2023-04-17T11:24:29.776Z,79.31
2023-04-17T11:29:31.483Z,78.39
2023-04-17T11:34:34.017Z,78.32
2023-04-17T11:39:35.703Z,77.26
2023-04-17T11:44:42.887Z,77.54
2023-04-17T11:49:44.478Z,78.71
2023-04-17T11:54:46.064Z,77.26
2023-04-17T11:59:47.669Z,77.32
2023-04-17T12:04:49.501Z,77.84
2023-04-17T12:09:57.753Z,78.22
2023-04-17T12:14:59.534Z,77.37
2023-04-17T12:20:04.011Z,77.40
2023-04-17T12:25:05.975Z,77.32
2023-04-17T12:30:08.056Z,77.13
2023-04-17T12:35:09.991Z,78.43
2023-04-17T12:40:11.761Z,77.50
2023-04-17T12:45:14.239Z,76.45
2023-04-17T12:50:16.026Z,76.25
2023-04-17T12:55:17.618Z,75.43
2023-04-17T13:00:19.923Z,75.33
2023-04-17T13:05:21.550Z,75.51
2023-04-17T13:10:23.151Z,75.23
2023-04-17T13:15:24.804Z,75.68
2023-04-17T13:20:26.446Z,75.09
2023-04-17T13:25:30.180Z,75.67
2023-04-17T13:30:32.364Z,75.77
2023-04-17T13:35:34.003Z,75.76
2023-04-17T13:40:36.517Z,77.82
2023-04-17T13:45:38.068Z,78.87
2023-04-17T13:50:39.679Z,78.31
2023-04-17T13:55:41.358Z,78.20
2023-04-17T14:00:43.182Z,78.27
2023-04-17T14:05:44.792Z,78.37
2023-04-17T14:10:46.343Z,78.76
2023-04-17T14:15:47.947Z,78.79
2023-04-17T14:20:52.431Z,78.64
2023-04-17T14:25:53.993Z,77.96
2023-04-17T14:30:55.632Z,78.72
2023-04-17T14:35:57.711Z,77.18
2023-04-17T14:40:59.411Z,77.18
2023-04-17T14:46:01.044Z,77.13
2023-04-17T14:51:02.648Z,77.14
2023-04-17T14:56:04.405Z,75.29
2023-04-17T15:01:06.004Z,74.26
2023-04-17T15:06:08.160Z,74.37
2023-04-17T15:11:09.849Z,73.56
2023-04-17T15:16:11.532Z,72.55
2023-04-17T15:21:15.485Z,73.08
2023-04-17T15:26:17.036Z,74.34
2023-04-17T15:31:18.711Z,75.17
2023-04-17T15:36:20.269Z,75.69
2023-04-17T15:41:23.104Z,77.36
2023-04-17T15:46:24.735Z,77.70
2023-04-17T15:51:27.492Z,77.73
2023-04-17T15:56:29.071Z,78.18
2023-04-17T16:01:30.742Z,79.26
2023-04-17T16:06:32.394Z,79.23
2023-04-17T16:11:34.406Z,77.28
2023-04-17T16:16:35.958Z,76.83
2023-04-17T16:21:37.811Z,77.54
2023-04-17T16:26:39.477Z,78.34
2023-04-17T16:31:41.269Z,78.91
2023-04-17T16:36:45.196Z,78.92
2023-04-17T16:41:47.212Z,79.18
2023-04-17T16:51:53.586Z,79.76
2023-04-17T16:56:55.793Z,80.03
2023-04-17T17:01:57.902Z,80.29
2023-04-17T17:07:00.438Z,80.28
2023-04-17T17:12:02.207Z,80.87
2023-04-17T17:17:03.792Z,81.35
2023-04-17T17:22:05.441Z,81.08
2023-04-17T17:27:07.200Z,80.33
2023-04-17T17:32:09.514Z,81.69
2023-04-17T17:37:11.277Z,81.96
2023-04-17T17:42:12.850Z,82.68
2023-04-17T17:47:14.493Z,83.05
2023-04-17T17:52:16.208Z,83.59
2023-04-17T17:57:17.858Z,83.96
2023-04-17T18:02:19.553Z,84.69
2023-04-17T18:07:21.533Z,84.67
2023-04-17T18:12:23.093Z,84.86
2023-04-17T18:17:24.877Z,84.53
2023-04-17T18:22:26.766Z,85.82
2023-04-17T18:27:28.356Z,86.35
2023-04-17T18:32:31.572Z,86.09
2023-04-17T18:37:33.264Z,87.57
2023-04-17T18:42:34.963Z,87.37
2023-04-17T18:47:36.897Z,87.44
2023-04-17T18:52:40.349Z,87.17
2023-04-17T18:57:42.318Z,87.65
2023-04-17T19:02:44.007Z,87.69
2023-04-17T19:07:45.699Z,88.52
2023-04-17T19:12:47.401Z,88.91
2023-04-17T19:17:49.036Z,88.72
2023-04-17T19:22:50.662Z,89.07
2023-04-17T19:27:52.265Z,89.43
2023-04-17T19:32:53.931Z,90.68
2023-04-17T19:37:55.816Z,90.78
2023-04-17T19:43:01.552Z,89.74
2023-04-17T19:48:03.404Z,88.51
2023-04-17T19:53:05.272Z,90.10
2023-04-17T19:58:06.996Z,91.46
2023-04-17T20:03:08.667Z,90.30
2023-04-17T20:08:10.656Z,91.44
2023-04-17T20:13:12.915Z,91.24
2023-04-17T20:18:14.461Z,91.34
2023-04-17T20:23:16.010Z,92.08
2023-04-17T20:28:17.578Z,93.75
2023-04-17T20:33:19.212Z,93.54
2023-04-17T20:38:20.891Z,94.46
2023-04-17T20:43:22.477Z,95.68
2023-04-17T20:48:25.124Z,97.82
2023-04-17T20:53:26.874Z,98.68
2023-04-17T20:58:28.494Z,99.38
2023-04-17T21:03:33.304Z,98.58
2023-04-17T21:08:35.645Z,99.86
2023-04-17T21:13:37.458Z,98.65
2023-04-17T21:18:39.196Z,99.43
2023-04-17T21:23:40.843Z,97.46
2023-04-17T21:28:43.014Z,97.69
2023-04-17T21:33:44.642Z,96.74
2023-04-17T21:38:46.339Z,95.84
2023-04-17T21:43:47.875Z,97.05
2023-04-17T21:48:49.468Z,98.07
2023-04-17T21:53:51.156Z,98.32
2023-04-17T21:58:52.835Z,97.78
2023-04-17T22:03:54.487Z,98.82
2023-04-17T22:08:56.080Z,98.44
2023-04-17T22:13:57.708Z,97.03
2023-04-17T22:18:59.292Z,96.15
2023-04-17T22:24:00.868Z,95.11
2023-04-17T22:29:02.555Z,95.94
2023-04-17T22:34:04.189Z,97.77
2023-04-17T22:39:05.979Z,98.31
2023-04-17T22:44:07.563Z,99.07
2023-04-17T22:49:09.515Z,99.63
2023-04-17T22:54:21.542Z,99.01
2023-04-17T22:59:24.589Z,100.00
2023-04-17T23:04:26.196Z,99.42
2023-04-17T23:09:27.774Z,98.86
2023-04-17T23:14:29.356Z,99.57
2023-04-17T23:19:30.924Z,99.36
2023-04-17T23:24:36.056Z,98.39
2023-04-17T23:29:37.647Z,97.37
2023-04-17T23:34:39.227Z,98.76
2023-04-17T23:39:42.599Z,98.17
2023-04-17T23:44:44.219Z,98.95
2023-04-17T23:49:47.433Z,98.91
2023-04-17T23:54:49.136Z,97.81
2023-04-17T23:59:50.925Z,97.39
